createdAt,value
2022-12-03T00:00:18.632Z,67.14
2022-12-03T00:02:47.319Z,67.07
2022-12-03T00:05:15.714Z,68.08
2022-12-03T00:07:44.051Z,67.10
2022-12-03T00:10:26.116Z,68.07
2022-12-03T00:12:54.518Z,68.05
2022-12-03T00:15:22.615Z,68.50
2022-12-03T00:17:50.791Z,68.02
2022-12-03T00:20:21.832Z,67.55
2022-12-03T00:22:50.617Z,67.84
2022-12-03T00:25:20.436Z,67.50
2022-12-03T00:27:49.094Z,67.69
2022-12-03T00:30:18.096Z,68.12
2022-12-03T00:32:46.559Z,67.52
2022-12-03T00:35:14.742Z,68.39
2022-12-03T00:37:42.863Z,68.00
2022-12-03T00:40:15.647Z,67.80
2022-12-03T00:42:49.208Z,66.80
2022-12-03T00:45:17.662Z,67.26
2022-12-03T00:47:46.138Z,67.70
2022-12-03T00:50:14.302Z,66.57
2022-12-03T00:52:42.490Z,67.87
2022-12-03T00:55:11.091Z,67.27
2022-12-03T00:57:39.507Z,66.28
2022-12-03T01:00:13.328Z,67.27
2022-12-03T01:02:41.629Z,67.52
2022-12-03T01:05:12.525Z,67.67
2022-12-03T01:07:41.238Z,67.69
2022-12-03T01:10:09.792Z,68.51
2022-12-03T01:12:38.032Z,68.59
2022-12-03T01:15:09.663Z,68.40
2022-12-03T01:17:39.748Z,69.00
2022-12-03T01:20:09.739Z,69.01
2022-12-03T01:22:38.484Z,68.97
2022-12-03T01:25:07.391Z,69.48
2022-12-03T01:27:38.251Z,68.83
2022-12-03T01:30:07.943Z,68.72
2022-12-03T01:32:35.443Z,69.77
2022-12-03T01:35:05.724Z,70.01
2022-12-03T01:37:35.234Z,69.31
2022-12-03T01:40:03.690Z,68.78
2022-12-03T01:42:34.697Z,68.89
2022-12-03T01:45:04.168Z,68.70
2022-12-03T01:47:34.779Z,68.33
2022-12-03T01:50:09.491Z,69.16
2022-12-03T01:52:39.674Z,69.40
2022-12-03T01:55:16.244Z,69.05
2022-12-03T01:57:47.034Z,68.76
2022-12-03T02:00:18.072Z,67.87
2022-12-03T02:02:47.892Z,68.64
2022-12-03T02:05:20.149Z,68.49
2022-12-03T02:07:48.340Z,69.21
2022-12-03T02:10:20.086Z,69.17
2022-12-03T02:12:51.863Z,69.00
2022-12-03T02:15:20.378Z,69.63
2022-12-03T02:17:48.468Z,68.69
2022-12-03T02:20:18.395Z,69.02
2022-12-03T02:22:55.304Z,68.05
2022-12-03T02:25:27.309Z,68.04
2022-12-03T02:27:56.377Z,67.73
2022-12-03T02:30:27.094Z,67.26
2022-12-03T02:32:55.818Z,67.86
2022-12-03T02:35:26.282Z,68.02
2022-12-03T02:37:59.413Z,68.16
2022-12-03T02:40:31.684Z,68.03
2022-12-03T02:43:01.444Z,68.69
2022-12-03T02:45:32.509Z,68.87
2022-12-03T02:48:05.199Z,68.99
2022-12-03T02:50:35.566Z,68.54
2022-12-03T02:53:08.431Z,68.28
2022-12-03T02:55:38.751Z,68.67
2022-12-03T02:58:07.413Z,68.86
2022-12-03T03:00:37.318Z,69.22
2022-12-03T03:03:07.440Z,68.51
2022-12-03T03:05:37.804Z,68.38
2022-12-03T03:08:06.820Z,68.52
2022-12-03T03:10:36.634Z,68.86
2022-12-03T03:13:10.193Z,69.15
2022-12-03T03:15:39.375Z,68.10
2022-12-03T03:18:08.562Z,67.87
2022-12-03T03:20:37.576Z,68.69
2022-12-03T03:23:15.595Z,68.71
2022-12-03T03:25:46.580Z,68.91
2022-12-03T03:28:17.525Z,68.92
2022-12-03T03:30:46.491Z,68.20
2022-12-03T03:33:17.599Z,69.29
2022-12-03T03:35:47.172Z,69.68
2022-12-03T03:38:16.096Z,69.19
2022-12-03T03:40:44.743Z,68.53
2022-12-03T03:43:14.114Z,67.98
2022-12-03T03:45:44.737Z,68.10
2022-12-03T03:48:14.125Z,68.30
2022-12-03T03:50:44.532Z,69.31
2022-12-03T03:53:13.423Z,68.25
2022-12-03T03:55:42.076Z,68.76
2022-12-03T03:58:10.253Z,69.57
2022-12-03T04:00:38.464Z,69.34
2022-12-03T04:03:08.165Z,69.24
2022-12-03T04:05:36.201Z,69.30
2022-12-03T04:08:04.406Z,68.71
2022-12-03T04:10:46.436Z,69.29
2022-12-03T04:13:14.436Z,69.46
2022-12-03T04:15:42.394Z,69.14
2022-12-03T04:18:29.973Z,68.85
2022-12-03T04:21:17.974Z,69.13
2022-12-03T04:23:45.087Z,68.50
2022-12-03T04:26:30.851Z,68.68
2022-12-03T04:28:59.209Z,68.21
2022-12-03T04:31:44.819Z,67.39
2022-12-03T04:34:32.134Z,67.24
2022-12-03T04:37:00.193Z,66.98
2022-12-03T04:39:28.336Z,66.60
2022-12-03T04:41:56.512Z,66.74
2022-12-03T04:44:39.549Z,66.35
2022-12-03T04:47:12.114Z,68.04
2022-12-03T04:49:44.066Z,68.18
2022-12-03T04:52:13.523Z,67.46
2022-12-03T04:54:42.436Z,68.09
2022-12-03T04:57:11.281Z,67.38
2022-12-03T04:59:40.147Z,67.36
2022-12-03T05:02:08.955Z,68.43
2022-12-03T05:04:37.081Z,68.17
2022-12-03T05:07:07.062Z,68.13
2022-12-03T05:09:35.109Z,69.50
2022-12-03T05:12:03.965Z,69.01
2022-12-03T05:14:32.176Z,68.33
2022-12-03T05:17:00.357Z,68.11
2022-12-03T05:19:42.332Z,68.54
2022-12-03T05:22:11.925Z,69.28
2022-12-03T05:24:40.267Z,68.74
2022-12-03T05:27:08.300Z,70.20
2022-12-03T05:29:36.340Z,69.74
2022-12-03T05:32:04.658Z,68.43
2022-12-03T05:34:32.690Z,67.38
2022-12-03T05:37:01.011Z,67.07
2022-12-03T05:39:30.591Z,67.57
2022-12-03T05:42:16.297Z,67.42
2022-12-03T05:44:44.330Z,68.39
2022-12-03T05:47:12.636Z,67.98
2022-12-03T05:49:40.988Z,68.33
2022-12-03T05:52:08.944Z,69.24
2022-12-03T05:54:38.731Z,69.53
2022-12-03T05:57:07.076Z,69.17
2022-12-03T05:59:35.329Z,69.99
2022-12-03T06:02:03.394Z,69.36
2022-12-03T06:04:31.497Z,69.46
2022-12-03T06:06:59.621Z,69.01
2022-12-03T06:09:27.756Z,69.97
2022-12-03T06:11:57.718Z,69.49
2022-12-03T06:14:25.731Z,69.75
2022-12-03T06:16:53.702Z,69.05
2022-12-03T06:19:21.831Z,69.22
2022-12-03T06:21:50.000Z,69.09
2022-12-03T06:24:18.384Z,69.82
2022-12-03T06:26:46.653Z,69.33
2022-12-03T06:29:17.195Z,68.88
2022-12-03T06:31:45.320Z,69.41
2022-12-03T06:34:13.716Z,69.43
2022-12-03T06:36:42.131Z,69.84
2022-12-03T06:39:10.400Z,70.24
2022-12-03T06:41:38.556Z,70.06
2022-12-03T06:44:06.941Z,69.64
2022-12-03T06:46:37.296Z,68.99
2022-12-03T06:49:05.827Z,68.60
2022-12-03T06:51:34.107Z,69.13
2022-12-03T06:54:02.720Z,68.97
2022-12-03T06:56:36.791Z,68.65
2022-12-03T06:59:07.377Z,68.92
2022-12-03T07:01:37.098Z,69.62
2022-12-03T07:04:05.652Z,69.89
2022-12-03T07:06:33.751Z,68.94
2022-12-03T07:09:02.036Z,67.99
2022-12-03T07:11:33.108Z,67.33
2022-12-03T07:14:05.446Z,67.73
2022-12-03T07:16:34.662Z,69.06
2022-12-03T07:19:05.389Z,68.99
2022-12-03T07:21:34.341Z,68.38
2022-12-03T07:24:02.855Z,67.48
2022-12-03T07:26:31.111Z,67.84
2022-12-03T07:28:59.289Z,69.36
2022-12-03T07:31:27.699Z,68.86
2022-12-03T07:33:56.474Z,67.37
2022-12-03T07:36:26.494Z,66.70
2022-12-03T07:38:55.038Z,65.94
2022-12-03T07:41:23.360Z,65.57
2022-12-03T07:43:51.618Z,65.72
2022-12-03T07:46:19.915Z,65.98
2022-12-03T07:48:48.430Z,65.37
2022-12-03T07:51:17.205Z,64.34
2022-12-03T07:53:46.768Z,65.45
2022-12-03T07:56:15.302Z,65.21
2022-12-03T07:58:43.703Z,65.76
2022-12-03T08:01:12.184Z,64.69
2022-12-03T08:03:42.867Z,65.01
2022-12-03T08:06:11.311Z,65.33
2022-12-03T08:08:39.462Z,65.32
2022-12-03T08:11:13.164Z,65.65
2022-12-03T08:13:41.999Z,65.67
2022-12-03T08:16:17.798Z,64.94
2022-12-03T08:18:47.191Z,64.75
2022-12-03T08:21:18.109Z,65.48
2022-12-03T08:23:46.950Z,65.04
2022-12-03T08:26:23.893Z,65.89
2022-12-03T08:28:53.219Z,65.56
2022-12-03T08:31:27.915Z,66.14
2022-12-03T08:34:19.984Z,65.72
2022-12-03T08:36:48.679Z,65.74
2022-12-03T08:39:33.345Z,65.54
2022-12-03T08:42:30.639Z,64.95
2022-12-03T08:45:19.475Z,66.22
2022-12-03T08:47:47.784Z,66.97
2022-12-03T08:50:28.586Z,66.36
2022-12-03T08:53:01.569Z,66.36
2022-12-03T08:55:36.554Z,66.63
2022-12-03T08:58:21.954Z,65.94
2022-12-03T09:00:59.541Z,66.63
2022-12-03T09:03:31.932Z,66.21
2022-12-03T09:06:00.319Z,66.07
2022-12-03T09:08:28.776Z,66.72
2022-12-03T09:10:57.069Z,65.90
2022-12-03T09:13:26.688Z,65.37
2022-12-03T09:15:55.025Z,66.04
2022-12-03T09:18:23.579Z,65.79
2022-12-03T09:20:51.904Z,66.23
2022-12-03T09:23:20.151Z,64.92
2022-12-03T09:25:48.355Z,65.17
2022-12-03T09:28:17.044Z,64.10
2022-12-03T09:30:46.869Z,64.55
2022-12-03T09:33:15.491Z,64.24
2022-12-03T09:35:43.773Z,64.57
2022-12-03T09:38:12.361Z,63.61
2022-12-03T09:40:42.658Z,64.78
2022-12-03T09:43:12.029Z,65.27
2022-12-03T09:45:40.468Z,65.36
2022-12-03T09:48:09.960Z,64.87
2022-12-03T09:50:41.686Z,64.76
2022-12-03T09:53:14.209Z,64.63
2022-12-03T09:55:45.263Z,65.14
2022-12-03T09:58:15.663Z,64.70
2022-12-03T10:00:46.961Z,64.16
2022-12-03T10:03:19.209Z,64.69
2022-12-03T10:05:48.477Z,64.87
2022-12-03T10:08:21.626Z,64.92
2022-12-03T10:10:54.205Z,64.84
2022-12-03T10:13:26.401Z,64.81
2022-12-03T10:15:56.472Z,65.74
2022-12-03T10:18:30.821Z,65.05
2022-12-03T10:20:59.706Z,65.22
2022-12-03T10:23:31.014Z,63.85
2022-12-03T10:26:01.737Z,63.16
2022-12-03T10:28:47.652Z,63.90
2022-12-03T10:31:16.468Z,64.26
2022-12-03T10:33:47.351Z,65.28
2022-12-03T10:36:23.447Z,65.26
2022-12-03T10:39:10.260Z,65.76
2022-12-03T10:41:39.239Z,64.44
2022-12-03T10:44:20.026Z,65.61
2022-12-03T10:47:06.904Z,65.39
2022-12-03T10:49:36.952Z,64.95
2022-12-03T10:52:06.310Z,65.51
2022-12-03T10:54:36.809Z,65.21
2022-12-03T10:57:05.155Z,64.89
2022-12-03T10:59:35.242Z,64.13
2022-12-03T11:02:05.163Z,64.95
2022-12-03T11:04:35.607Z,66.13
2022-12-03T11:07:15.406Z,64.32
2022-12-03T11:09:46.033Z,65.48
2022-12-03T11:12:20.549Z,64.88
2022-12-03T11:15:06.549Z,64.73
2022-12-03T11:17:45.955Z,64.59
2022-12-03T11:21:08.017Z,65.01
2022-12-03T11:24:18.908Z,64.82
2022-12-03T11:27:26.732Z,64.37
2022-12-03T11:30:02.789Z,64.31
2022-12-03T11:33:00.978Z,64.46
2022-12-03T11:35:37.824Z,64.49
2022-12-03T11:38:52.232Z,64.23
2022-12-03T11:41:25.017Z,63.25
2022-12-03T11:44:29.664Z,63.20
2022-12-03T11:47:09.594Z,63.46
2022-12-03T11:49:47.393Z,64.05
2022-12-03T11:52:25.715Z,63.97
2022-12-03T11:54:58.918Z,64.41
2022-12-03T11:57:31.699Z,63.41
2022-12-03T12:00:02.225Z,62.90
2022-12-03T12:02:40.110Z,64.00
2022-12-03T12:05:28.675Z,64.67
2022-12-03T12:07:57.567Z,64.66
2022-12-03T12:10:46.840Z,65.20
2022-12-03T12:13:50.143Z,64.81
2022-12-03T12:16:50.264Z,65.59
2022-12-03T12:19:43.008Z,65.35
2022-12-03T12:22:20.232Z,66.09
2022-12-03T12:24:51.977Z,67.10
2022-12-03T12:27:22.787Z,66.91
2022-12-03T12:29:57.471Z,66.40
2022-12-03T12:32:28.596Z,66.64
2022-12-03T12:35:01.224Z,65.41
2022-12-03T12:37:34.955Z,65.44
2022-12-03T12:40:11.864Z,65.43
2022-12-03T12:42:49.069Z,66.83
2022-12-03T12:45:22.759Z,65.64
2022-12-03T12:48:01.638Z,66.30
2022-12-03T12:50:32.022Z,66.16
2022-12-03T12:53:04.061Z,66.59
2022-12-03T12:55:32.532Z,68.29
2022-12-03T12:58:03.583Z,66.68
2022-12-03T13:00:33.302Z,65.90
2022-12-03T13:03:03.856Z,65.89
2022-12-03T13:05:39.807Z,67.39
2022-12-03T13:08:21.620Z,68.09
2022-12-03T13:10:51.033Z,67.43
2022-12-03T13:13:23.326Z,66.95
2022-12-03T13:16:00.781Z,66.29
2022-12-03T13:18:34.680Z,66.29
2022-12-03T13:21:14.606Z,66.73
2022-12-03T13:23:42.842Z,66.96
2022-12-03T13:26:34.523Z,66.98
2022-12-03T13:29:15.581Z,65.87
2022-12-03T13:31:50.223Z,66.27
2022-12-03T13:34:22.533Z,65.86
2022-12-03T13:36:57.701Z,66.38
2022-12-03T13:39:31.230Z,65.54
2022-12-03T13:42:24.751Z,65.68
2022-12-03T13:44:54.409Z,65.40
2022-12-03T13:47:25.087Z,66.08
2022-12-03T13:49:57.752Z,66.16
2022-12-03T13:52:26.964Z,66.45
2022-12-03T13:54:57.265Z,67.41
2022-12-03T13:57:25.911Z,67.95
2022-12-03T13:59:54.484Z,67.51
2022-12-03T14:02:24.621Z,67.39
2022-12-03T14:04:59.801Z,67.28
2022-12-03T14:07:28.937Z,67.22
2022-12-03T14:09:58.226Z,67.40
2022-12-03T14:12:26.769Z,67.56
2022-12-03T14:14:55.358Z,69.21
2022-12-03T14:17:25.204Z,68.81
2022-12-03T14:19:53.620Z,68.13
2022-12-03T14:22:25.331Z,67.99
2022-12-03T14:24:54.902Z,68.53
2022-12-03T14:27:25.402Z,67.94
2022-12-03T14:29:54.077Z,68.11
2022-12-03T14:32:22.550Z,67.66
2022-12-03T14:34:52.191Z,68.19
2022-12-03T14:37:20.733Z,67.65
2022-12-03T14:39:49.027Z,67.78
2022-12-03T14:42:18.327Z,66.82
2022-12-03T14:44:48.339Z,67.03
2022-12-03T14:47:18.577Z,66.86
2022-12-03T14:49:47.830Z,68.35
2022-12-03T14:52:17.756Z,68.23
2022-12-03T14:54:46.518Z,67.13
2022-12-03T14:57:16.484Z,67.87
2022-12-03T14:59:47.007Z,67.21
2022-12-03T15:02:15.781Z,68.08
2022-12-03T15:04:44.320Z,68.60
2022-12-03T15:07:12.671Z,68.49
2022-12-03T15:09:42.200Z,68.39
2022-12-03T15:12:10.652Z,68.52
2022-12-03T15:14:39.120Z,67.58
2022-12-03T15:17:07.610Z,68.21
2022-12-03T15:19:36.168Z,68.37
2022-12-03T15:22:04.580Z,68.58
2022-12-03T15:24:32.738Z,69.50
2022-12-03T15:27:02.467Z,69.02
2022-12-03T15:29:30.584Z,68.86
2022-12-03T15:32:01.010Z,69.43
2022-12-03T15:34:29.098Z,69.99
2022-12-03T15:36:57.114Z,69.57
2022-12-03T15:39:25.492Z,69.26
2022-12-03T15:41:53.556Z,70.23
2022-12-03T15:44:24.056Z,69.66
2022-12-03T15:46:52.161Z,69.76
2022-12-03T15:49:20.231Z,69.79
2022-12-03T15:51:48.549Z,70.14
2022-12-03T15:54:16.680Z,69.50
2022-12-03T15:56:44.916Z,69.48
2022-12-03T15:59:13.419Z,70.36
2022-12-03T16:01:43.129Z,69.82
2022-12-03T16:04:11.546Z,69.42
2022-12-03T16:06:39.627Z,70.18
2022-12-03T16:09:08.083Z,69.38
2022-12-03T16:11:36.121Z,68.71
2022-12-03T16:14:04.400Z,69.46
2022-12-03T16:16:32.785Z,69.40
2022-12-03T16:19:02.328Z,68.64
2022-12-03T16:21:30.408Z,69.52
2022-12-03T16:23:59.351Z,69.39
2022-12-03T16:26:27.839Z,69.32
2022-12-03T16:28:56.150Z,69.50
2022-12-03T16:31:25.170Z,68.65
2022-12-03T16:33:53.202Z,68.96
2022-12-03T16:36:22.585Z,68.42
2022-12-03T16:38:51.862Z,69.07
2022-12-03T16:41:20.219Z,69.18
2022-12-03T16:43:48.618Z,69.57
2022-12-03T16:46:26.362Z,70.51
2022-12-03T16:48:56.473Z,69.24
2022-12-03T16:51:30.312Z,68.44
2022-12-03T16:53:58.456Z,68.93
2022-12-03T16:56:26.417Z,70.34
2022-12-03T16:58:54.402Z,69.84
2022-12-03T17:01:23.441Z,70.89
2022-12-03T17:03:51.941Z,70.16
2022-12-03T17:06:20.180Z,69.91
2022-12-03T17:08:50.146Z,70.39
2022-12-03T17:11:18.859Z,69.34
2022-12-03T17:13:47.066Z,71.12
2022-12-03T17:16:15.414Z,70.36
2022-12-03T17:18:43.958Z,70.18
2022-12-03T17:21:12.028Z,70.27
2022-12-03T17:23:40.216Z,70.34
2022-12-03T17:26:09.624Z,69.52
2022-12-03T17:28:37.834Z,70.30
2022-12-03T17:31:06.272Z,71.28
2022-12-03T17:33:34.363Z,70.40
2022-12-03T17:36:02.819Z,70.70
2022-12-03T17:38:35.676Z,70.45
2022-12-03T17:41:09.083Z,70.41
2022-12-03T17:43:37.076Z,69.84
2022-12-03T17:46:06.698Z,70.30
2022-12-03T17:48:35.460Z,70.42
2022-12-03T17:51:03.920Z,70.30
2022-12-03T17:53:32.026Z,70.22
2022-12-03T17:56:00.217Z,69.52
2022-12-03T17:58:29.864Z,69.94
2022-12-03T18:01:02.473Z,70.79
2022-12-03T18:03:31.274Z,71.10
2022-12-03T18:05:59.352Z,71.27
2022-12-03T18:08:27.441Z,71.18
2022-12-03T18:10:55.510Z,71.33
2022-12-03T18:13:23.650Z,70.30
2022-12-03T18:15:53.305Z,69.87
2022-12-03T18:18:21.468Z,71.00
2022-12-03T18:20:49.615Z,71.93
2022-12-03T18:23:17.770Z,71.65
2022-12-03T18:25:46.002Z,71.66
2022-12-03T18:28:14.210Z,72.13
2022-12-03T18:30:43.323Z,71.79
2022-12-03T18:33:16.752Z,71.67
2022-12-03T18:35:45.340Z,71.64
2022-12-03T18:38:15.513Z,71.40
2022-12-03T18:40:44.704Z,72.08
2022-12-03T18:43:13.919Z,71.78
2022-12-03T18:45:42.835Z,71.11
2022-12-03T18:48:13.971Z,70.03
2022-12-03T18:50:44.948Z,70.18
2022-12-03T18:53:14.733Z,69.89
2022-12-03T18:55:44.454Z,70.08
2022-12-03T18:58:12.546Z,69.73
2022-12-03T19:00:41.186Z,70.40
2022-12-03T19:03:09.276Z,70.72
2022-12-03T19:05:37.626Z,70.38
2022-12-03T19:08:14.417Z,70.58
2022-12-03T19:10:43.101Z,69.57
2022-12-03T19:13:11.156Z,69.12
2022-12-03T19:15:39.846Z,69.21
2022-12-03T19:18:08.247Z,68.94
2022-12-03T19:20:36.353Z,69.57
2022-12-03T19:23:04.400Z,70.28
2022-12-03T19:25:34.157Z,69.52
2022-12-03T19:28:02.188Z,68.64
2022-12-03T19:30:30.623Z,68.42
2022-12-03T19:32:58.823Z,69.45
2022-12-03T19:35:26.879Z,68.93
2022-12-03T19:37:55.746Z,68.62
2022-12-03T19:40:23.866Z,69.87
2022-12-03T19:42:53.895Z,69.62
2022-12-03T19:45:21.948Z,68.43
2022-12-03T19:47:50.044Z,68.21
2022-12-03T19:50:22.908Z,70.21
2022-12-03T19:52:51.284Z,69.09
2022-12-03T19:55:20.515Z,68.83
2022-12-03T19:57:48.712Z,67.37
2022-12-03T20:00:19.834Z,67.75
2022-12-03T20:02:50.576Z,67.59
2022-12-03T20:05:18.899Z,67.16
2022-12-03T20:07:47.088Z,68.24
2022-12-03T20:10:15.211Z,68.37
2022-12-03T20:12:43.211Z,69.87
2022-12-03T20:15:12.820Z,69.49
2022-12-03T20:17:42.801Z,68.88
2022-12-03T20:20:11.655Z,69.59
2022-12-03T20:22:39.640Z,70.13
2022-12-03T20:25:08.523Z,69.93
2022-12-03T20:27:36.701Z,70.20
2022-12-03T20:30:05.727Z,70.68
2022-12-03T20:32:33.747Z,70.32
2022-12-03T20:35:04.424Z,69.83
2022-12-03T20:37:32.656Z,71.03
2022-12-03T20:40:00.730Z,70.93
2022-12-03T20:42:28.894Z,70.84
2022-12-03T20:44:57.149Z,70.24
2022-12-03T20:47:25.200Z,70.95
2022-12-03T20:49:53.439Z,70.46
2022-12-03T20:52:23.450Z,70.75
2022-12-03T20:54:51.459Z,69.97
2022-12-03T20:57:19.528Z,69.82
2022-12-03T20:59:47.586Z,69.16
2022-12-03T21:02:16.285Z,69.13
2022-12-03T21:04:44.489Z,68.35
2022-12-03T21:07:12.654Z,68.74
2022-12-03T21:09:42.608Z,68.74
2022-12-03T21:12:10.787Z,68.64
2022-12-03T21:14:38.859Z,70.20
2022-12-03T21:17:08.732Z,70.02
2022-12-03T21:19:38.006Z,71.01
2022-12-03T21:22:06.793Z,71.91
2022-12-03T21:24:35.326Z,71.38
2022-12-03T21:27:04.979Z,71.52
2022-12-03T21:29:33.121Z,71.31
2022-12-03T21:32:01.166Z,70.88
2022-12-03T21:34:35.790Z,71.95
2022-12-03T21:37:05.240Z,72.05
2022-12-03T21:39:33.338Z,70.55
2022-12-03T21:42:34.235Z,69.44
2022-12-03T21:44:52.019Z,69.01
2022-12-03T21:47:20.156Z,69.70
2022-12-03T21:49:48.665Z,68.52
2022-12-03T21:52:16.811Z,70.18
2022-12-03T21:54:44.890Z,70.25
2022-12-03T21:57:13.187Z,69.89
2022-12-03T21:59:41.264Z,69.69
2022-12-03T22:02:12.412Z,70.01
2022-12-03T22:04:40.918Z,69.43
2022-12-03T22:07:08.890Z,69.94
2022-12-03T22:09:37.179Z,68.88
2022-12-03T22:12:05.600Z,69.77
2022-12-03T22:14:33.722Z,69.07
2022-12-03T22:17:01.757Z,68.03
2022-12-03T22:19:31.510Z,68.28
2022-12-03T22:21:59.738Z,68.28
2022-12-03T22:24:27.779Z,68.87
2022-12-03T22:26:55.928Z,68.66
2022-12-03T22:29:24.009Z,68.09
2022-12-03T22:31:52.613Z,68.18
2022-12-03T22:34:20.732Z,67.80
2022-12-03T22:36:50.239Z,67.52
2022-12-03T22:39:18.372Z,67.41
2022-12-03T22:41:46.482Z,67.28
2022-12-03T22:44:14.689Z,67.98
2022-12-03T22:46:43.046Z,68.69
2022-12-03T22:49:13.334Z,67.56
2022-12-03T22:51:41.292Z,67.76
2022-12-03T22:54:11.646Z,67.46
2022-12-03T22:56:39.852Z,68.26
2022-12-03T22:59:08.868Z,67.70
2022-12-03T23:01:38.746Z,66.76
2022-12-03T23:04:08.337Z,67.69
2022-12-03T23:06:37.566Z,67.04
2022-12-03T23:09:07.018Z,66.57
2022-12-03T23:11:37.090Z,66.02
2022-12-03T23:14:05.508Z,67.00
2022-12-03T23:16:34.378Z,66.78
2022-12-03T23:19:04.080Z,67.24
2022-12-03T23:21:35.337Z,68.42
2022-12-03T23:24:05.452Z,69.85
2022-12-03T23:26:37.524Z,70.26
2022-12-03T23:29:08.457Z,69.60
2022-12-03T23:31:37.407Z,69.28
2022-12-03T23:34:05.971Z,69.02
2022-12-03T23:36:34.771Z,68.29
2022-12-03T23:39:02.874Z,68.39
2022-12-03T23:41:30.928Z,67.36
2022-12-03T23:44:00.315Z,67.91
2022-12-03T23:46:29.156Z,68.73
2022-12-03T23:48:59.519Z,69.72
2022-12-03T23:51:28.114Z,68.22
2022-12-03T23:53:56.645Z,68.51
2022-12-03T23:56:27.573Z,68.13
2022-12-03T23:58:56.403Z,69.51
